Belen, NM

4:22 PM MST on November 23, 2017 (GMT -0700)
Belen

Weather History for KE80 - May, 2013

Change the Weather History Date:

Saturday, May 25, 2013

  Actual Average (KABQ) Record (KABQ)
Temperature  
Mean Temperature 74 °F -  
Max Temperature 95 °F 83 °F 92 °F (1984)
Min Temperature 54 °F 53 °F 33 °F (1980)
Cooling Degree Days 10    
Growing Degree Days 24 (Base 50)    
Moisture  
Dew Point 13 °F    
Average Humidity 10    
Maximum Humidity 22    
Minimum Humidity 4    
Precipitation  
Precipitation 0.00 in - - ()
Sea Level Pressure  
Sea Level Pressure 30.05 in    
Wind  
Wind Speed 8 mph (SW)    
Max Wind Speed 18 mph    
Max Gust Speed 30 mph    
Visibility 10 miles    
Events      
Averages and records for this station are not official NWS values.
T = Trace of Precipitation, MM = Missing Value Source: NWS Daily Summary

Daily Weather History Graph

Daily Weather History Graph

Search for Another Location

Airport or City:

Trip Planner

Search our weather history database for the weather conditions in past years. The results will help you decide how hot, cold, wet, or windy it might be!

Date:

Astronomy

May. 25, 2013 Rise Set
Actual Time 5:58 AM MDT 8:10 PM MDT
Civil Twilight 5:29 AM MDT 8:39 PM MDT
Nautical Twilight 4:54 AM MDT 9:14 PM MDT
Astronomical Twilight 4:16 AM MDT 9:52 PM MDT
Moon 9:02 PM MDT (5/25) 6:27 AM MDT (5/25)
Length of Visible Light 15h 09m
Length of Day
14h 12m
Waxing Gibbous, 99% of the Moon is Illuminated
May 25
Waxing Gibbous
May 31
Last Quarter
Jun 8
New
Jun 16
First Quarter
Jun 23
Full

Hourly Weather History & Observations

Time (MDT) Temp. Dew Point Humidity Pressure Visibility Wind Dir Wind Speed Gust Speed Precip Events Conditions
12:15 AM 66.2 °F 5.9 °F 9% 30.06 in 10.0 mi SSW 8.1 mph - N/A   Clear
12:35 AM 64.6 °F 5.7 °F 10% 30.06 in 10.0 mi SSW 5.8 mph - N/A   Clear
12:55 AM 63.9 °F 5.9 °F 10% 30.06 in 10.0 mi SW 9.2 mph - N/A   Clear
1:15 AM 63.5 °F 6.8 °F 11% 30.06 in 10.0 mi SW 6.9 mph - N/A   Clear
1:35 AM 61.7 °F 6.8 °F 11% 30.07 in 10.0 mi SW 3.5 mph - N/A   Clear
1:55 AM 60.4 °F 6.4 °F 12% 30.07 in 10.0 mi SW 6.9 mph - N/A   Clear
2:15 AM 59.0 °F 6.3 °F 12% 30.07 in 10.0 mi SW 9.2 mph - N/A   Clear
2:35 AM 60.6 °F 7.0 °F 12% 30.07 in 10.0 mi WSW 8.1 mph - N/A   Clear
2:55 AM 59.9 °F 7.3 °F 12% 30.08 in 10.0 mi West 9.2 mph - N/A   Clear
3:15 AM 57.7 °F 6.4 °F 13% 30.08 in 10.0 mi WSW 6.9 mph - N/A   Clear
3:35 AM 58.8 °F 7.7 °F 13% 30.08 in 10.0 mi West 8.1 mph - N/A   Clear
3:55 AM 57.7 °F 7.7 °F 14% 30.09 in 10.0 mi WSW 6.9 mph - N/A   Clear
4:15 AM 61.0 °F 9.3 °F 13% 30.11 in 10.0 mi ESE 4.6 mph - N/A   Clear
4:35 AM 57.9 °F 10.4 °F 15% 30.10 in 10.0 mi East 4.6 mph - N/A   Clear
4:55 AM 57.4 °F 10.0 °F 15% 30.11 in 10.0 mi Calm Calm - N/A   Clear
5:15 AM 57.2 °F 10.2 °F 16% 30.11 in 10.0 mi SSE 4.6 mph - N/A   Clear
5:35 AM 56.7 °F 9.5 °F 15% 30.11 in 10.0 mi South 3.5 mph - N/A   Clear
5:55 AM 56.5 °F 7.9 °F 14% 30.12 in 10.0 mi SW 3.5 mph - N/A   Clear
6:15 AM 54.3 °F 8.1 °F 16% 30.12 in 10.0 mi West 4.6 mph - N/A   Clear
6:35 AM 57.4 °F 8.6 °F 14% 30.14 in 10.0 mi Calm Calm - N/A   Clear
6:55 AM 59.2 °F 9.7 °F 14% 30.14 in 10.0 mi Calm Calm - N/A   Clear
7:15 AM 62.8 °F 11.3 °F 13% 30.14 in 10.0 mi Calm Calm - N/A   Clear
7:35 AM 66.2 °F 11.3 °F 12% 30.14 in 10.0 mi Calm Calm - N/A   Clear
7:55 AM 68.7 °F 12.6 °F 11% 30.14 in 10.0 mi Calm Calm - N/A   Clear
8:15 AM 70.3 °F 13.1 °F 11% 30.15 in 10.0 mi Calm Calm - N/A   Clear
8:35 AM 71.6 °F 15.1 °F 12% 30.15 in 10.0 mi Calm Calm - N/A   Clear
8:55 AM 72.5 °F 16.7 °F 12% 30.15 in 10.0 mi South 4.6 mph - N/A   Clear
9:15 AM 74.1 °F 18.0 °F 12% 30.15 in 10.0 mi SSW 5.8 mph - N/A   Clear
9:35 AM 74.7 °F 26.6 °F 17% 30.15 in 10.0 mi South 8.1 mph - N/A   Clear
9:55 AM 76.3 °F 32.9 °F 21% 30.14 in 10.0 mi South 11.5 mph 16.1 mph N/A   Clear
10:15 AM 77.4 °F 35.6 °F 22% 30.14 in 10.0 mi South 10.4 mph 16.1 mph N/A   Clear
10:35 AM 78.6 °F 34.5 °F 20% 30.13 in 10.0 mi SSW 11.5 mph 21.9 mph N/A   Clear
10:55 AM 80.4 °F 32.0 °F 17% 30.12 in 10.0 mi SSW 10.4 mph 16.1 mph N/A   Clear
11:15 AM 81.0 °F 30.9 °F 16% 30.12 in 10.0 mi South 11.5 mph - N/A   Clear
11:35 AM 82.9 °F 32.2 °F 16% 30.11 in 10.0 mi South 12.7 mph - N/A   Clear
11:55 AM 84.6 °F 27.9 °F 13% 30.10 in 10.0 mi South 12.7 mph - N/A   Clear
12:15 PM 84.2 °F 25.7 °F 12% 30.09 in 10.0 mi South 11.5 mph - N/A   Clear
12:35 PM 85.5 °F 24.4 °F 11% 30.09 in 10.0 mi South 11.5 mph 18.4 mph N/A   Clear
12:55 PM 86.2 °F 25.2 °F 11% 30.08 in 10.0 mi South 11.5 mph 17.3 mph N/A   Clear
1:15 PM 87.3 °F 25.0 °F 10% 30.07 in 10.0 mi South 10.4 mph 18.4 mph N/A   Clear
1:35 PM 88.0 °F 25.5 °F 10% 30.06 in 10.0 mi South 16.1 mph 21.9 mph N/A   Clear
1:55 PM 89.4 °F 24.1 °F 9% 30.05 in 10.0 mi South 15.0 mph 23.0 mph N/A   Clear
2:15 PM 89.2 °F 22.6 °F 9% 30.03 in 10.0 mi SSW 12.7 mph 16.1 mph N/A   Clear
2:35 PM 89.2 °F 21.7 °F 9% 30.02 in 10.0 mi SW 10.4 mph 18.4 mph N/A   Clear
2:55 PM 90.5 °F 17.4 °F 7% 30.01 in 10.0 mi ESE 3.5 mph 20.7 mph N/A   Clear
3:15 PM 92.8 °F 16.9 °F 6% 30.00 in 10.0 mi WSW 16.1 mph 23.0 mph N/A   Clear
3:35 PM 92.7 °F 13.6 °F 5% 29.98 in 10.0 mi South 18.4 mph 24.2 mph N/A   Clear
3:55 PM 93.2 °F 11.3 °F 5% 29.98 in 10.0 mi SSW 17.3 mph 24.2 mph N/A   Clear
4:15 PM 93.7 °F 14.2 °F 5% 29.97 in 10.0 mi South 17.3 mph 26.5 mph N/A   Clear
4:35 PM 95.0 °F 4.8 °F 4% 29.97 in 10.0 mi WSW 18.4 mph 25.3 mph N/A   Clear
4:55 PM 94.3 °F 4.3 °F 4% 29.96 in 10.0 mi WSW 12.7 mph 27.6 mph N/A   Clear
5:15 PM 93.9 °F 4.3 °F 4% 29.95 in 10.0 mi SSW 8.1 mph 29.9 mph N/A   Clear
5:35 PM 93.7 °F 3.6 °F 4% 29.94 in 10.0 mi WSW 13.8 mph 28.8 mph N/A   Clear
5:55 PM 93.0 °F 4.5 °F 4% 29.93 in 10.0 mi SW 13.8 mph 17.3 mph N/A   Clear
6:15 PM 92.7 °F 5.2 °F 4% 29.93 in 10.0 mi SW 17.3 mph 26.5 mph N/A   Clear
6:35 PM 92.3 °F 5.4 °F 4% 29.93 in 10.0 mi SW 16.1 mph 23.0 mph N/A   Clear
6:55 PM 91.4 °F 5.7 °F 4% 29.93 in 10.0 mi WSW 17.3 mph - N/A   Clear
7:15 PM 90.3 °F 6.8 °F 4% 29.93 in 10.0 mi WSW 13.8 mph 23.0 mph N/A   Clear
7:35 PM 88.9 °F 7.3 °F 5% 29.94 in 10.0 mi WSW 15.0 mph - N/A   Clear
7:55 PM 86.7 °F 6.8 °F 5% 29.94 in 10.0 mi West 18.4 mph 25.3 mph N/A   Clear
8:15 PM 84.4 °F 5.7 °F 5% 29.95 in 10.0 mi West 15.0 mph - N/A   Clear
8:35 PM 82.6 °F 6.8 °F 6% 29.96 in 10.0 mi WSW 12.7 mph - N/A   Clear
8:55 PM 79.7 °F 6.4 °F 6% 29.97 in 10.0 mi WSW 9.2 mph - N/A   Clear
9:15 PM 77.9 °F 6.6 °F 6% 29.97 in 10.0 mi WSW 10.4 mph - N/A   Clear
9:35 PM 77.0 °F 7.3 °F 7% 29.97 in 10.0 mi WSW 11.5 mph - N/A   Clear
9:55 PM 77.2 °F 9.1 °F 7% 29.99 in 10.0 mi WSW 15.0 mph - N/A   Clear
10:15 PM 76.3 °F 10.0 °F 8% 30.00 in 10.0 mi West 12.7 mph - N/A   Clear
10:35 PM 73.4 °F 10.0 °F 9% 30.02 in 10.0 mi West 10.4 mph - N/A   Clear
10:55 PM 73.0 °F 10.9 °F 9% 30.02 in 10.0 mi WSW 11.5 mph - N/A   Clear
11:15 PM 71.2 °F 11.1 °F 10% 30.03 in 10.0 mi West 11.5 mph - N/A   Clear
11:35 PM 70.2 °F 11.3 °F 10% 30.03 in 10.0 mi WSW 11.5 mph - N/A   Clear
11:55 PM 69.3 °F 11.3 °F 11% 30.04 in 10.0 mi West 10.4 mph - N/A   Clear